Time;durP1;ratioP1;P1;durP2;ratioP2;P2;SDS_P1;SDS_P2;PMS_P1;PMS_P2;Temp;Humidity;BMP_temperature;BMP_pressure;BME280_temperature;BME280_humidity;BME280_pressure;Samples;Min_cycle;Max_cycle;Signal;HPM_P1;HPM_P2
2022/03/02 00:01:23;;;;;;;16.60;15.10;;;;;;;0.75;59.29;95385.19;5095759;28;20203;-64
2022/03/02 00:03:50;;;;;;;18.27;16.58;;;;;;;0.72;59.90;95378.41;5096099;28;20196;-64
2022/03/02 00:06:17;;;;;;;17.67;16.17;;;;;;;0.69;59.22;95375.44;5096540;28;20195;-64
2022/03/02 00:08:44;;;;;;;18.15;16.63;;;;;;;0.66;59.33;95371.41;5096508;28;20212;-64
2022/03/02 00:11:11;;;;;;;18.42;16.75;;;;;;;0.64;59.95;95376.31;5096472;28;20192;-64
2022/03/02 00:13:40;;;;;;;18.25;16.65;;;;;;;0.66;60.15;95362.47;5096385;28;20200;-64
2022/03/02 00:16:08;;;;;;;18.75;17.02;;;;;;;0.65;60.25;95364.38;5096114;28;20242;-64
2022/03/02 00:18:35;;;;;;;18.38;16.67;;;;;;;0.66;60.67;95367.91;5096412;28;20246;-64
2022/03/02 00:21:01;;;;;;;17.40;15.77;;;;;;;0.65;59.41;95360.81;5096234;28;20198;-64
2022/03/02 00:23:29;;;;;;;16.42;14.93;;;;;;;0.67;58.60;95351.31;5095177;28;20200;-64
2022/03/02 00:25:56;;;;;;;15.77;14.38;;;;;;;0.66;58.72;95346.19;5096267;28;20204;-64
2022/03/02 00:28:23;;;;;;;16.60;15.10;;;;;;;0.64;58.43;95349.16;5096174;28;20617;-64
2022/03/02 00:30:52;;;;;;;15.38;14.07;;;;;;;0.61;59.28;95347.00;5094712;28;20232;-64
2022/03/02 00:33:19;;;;;;;15.48;14.00;;;;;;;0.62;59.46;95343.22;5095898;28;20208;-64
2022/03/02 00:35:45;;;;;;;14.30;13.10;;;;;;;0.62;59.12;95337.00;5095139;28;20207;-64
2022/03/02 00:38:12;;;;;;;13.65;12.45;;;;;;;0.64;58.27;95337.50;5096156;28;20189;-64
2022/03/02 00:40:39;;;;;;;12.90;11.85;;;;;;;0.67;58.19;95332.31;5096044;28;20184;-64
2022/03/02 00:43:07;;;;;;;13.45;12.35;;;;;;;0.68;57.79;95324.97;5094746;28;20196;-64
2022/03/02 00:45:34;;;;;;;13.60;12.40;;;;;;;0.65;57.74;95325.53;5095702;28;20604;-64
2022/03/02 00:48:04;;;;;;;13.45;12.35;;;;;;;0.63;58.08;95325.84;5095888;28;20343;-64
2022/03/02 00:50:31;;;;;;;15.38;14.05;;;;;;;0.66;57.81;95322.56;5095984;28;20199;-64
2022/03/02 00:52:59;;;;;;;16.52;15.05;;;;;;;0.68;57.85;95311.41;5095732;28;20204;-64
2022/03/02 00:55:26;;;;;;;18.05;16.35;;;;;;;0.68;59.21;95308.69;5094355;28;20198;-64
2022/03/02 00:57:53;;;;;;;16.67;15.10;;;;;;;0.62;59.93;95305.22;5095666;28;20196;-64
2022/03/02 01:00:21;;;;;;;17.60;16.10;;;;;;;0.56;60.66;95303.63;5094878;28;20200;-64
2022/03/02 01:02:47;;;;;;;19.10;17.30;;;;;;;0.46;61.05;95303.72;5095573;28;20195;-64
2022/03/02 01:05:16;;;;;;;18.38;16.67;;;;;;;0.37;62.05;95298.09;5094615;28;20200;-64
2022/03/02 01:07:43;;;;;;;18.92;17.17;;;;;;;0.35;61.77;95294.84;5095175;28;20176;-64
2022/03/02 01:10:10;;;;;;;20.15;18.05;;;;;;;0.32;61.91;95289.97;5095467;28;20191;-64
2022/03/02 01:12:37;;;;;;;19.40;17.40;;;;;;;0.34;61.87;95286.97;5094455;28;20644;-64
2022/03/02 01:15:05;;;;;;;17.83;16.23;;;;;;;0.36;62.11;95285.59;5095521;28;20199;-64
2022/03/02 01:17:32;;;;;;;15.27;13.93;;;;;;;0.34;60.46;95284.28;5094649;28;20226;-64
2022/03/02 01:19:59;;;;;;;13.95;12.73;;;;;;;0.35;60.92;95291.31;5094523;28;20598;-64
2022/03/02 01:22:28;;;;;;;12.85;11.75;;;;;;;0.34;60.21;95279.66;5094653;28;20199;-63
2022/03/02 01:24:55;;;;;;;13.73;12.52;;;;;;;0.34;61.11;95286.97;5094717;28;20192;-63
2022/03/02 01:27:22;;;;;;;13.05;11.95;;;;;;;0.31;60.79;95290.25;5095482;28;20204;-63
2022/03/02 01:29:50;;;;;;;12.77;11.68;;;;;;;0.26;60.56;95282.97;5094235;28;20228;-63
2022/03/02 01:32:18;;;;;;;15.60;14.30;;;;;;;0.17;61.36;95279.22;5095258;28;20280;-63
2022/03/02 01:34:45;;;;;;;15.00;13.80;;;;;;;0.09;61.89;95286.06;5094505;28;20290;-63
2022/03/02 01:37:12;;;;;;;15.57;14.18;;;;;;;0.04;62.26;95285.28;5095263;28;20185;-63
2022/03/02 01:39:40;;;;;;;12.18;11.15;;;;;;;0.05;61.78;95285.00;5094788;28;20195;-63
2022/03/02 01:42:07;;;;;;;12.77;11.73;;;;;;;0.04;60.92;95277.97;5093920;28;20211;-63
2022/03/02 01:44:35;;;;;;;11.30;10.30;;;;;;;0.06;60.63;95269.53;5094388;28;20204;-63
2022/03/02 01:47:03;;;;;;;11.02;10.15;;;;;;;0.05;60.11;95279.59;5094298;28;20336;-63
2022/03/02 01:49:29;;;;;;;11.73;10.73;;;;;;;0.09;60.38;95274.41;5094735;28;20207;-63
2022/03/02 01:51:56;;;;;;;12.98;11.98;;;;;;;0.07;61.44;95268.44;5094255;28;20199;-63
2022/03/02 01:54:23;;;;;;;13.80;12.70;;;;;;;-0.01;61.75;95272.56;5094406;28;20212;-63
2022/03/02 01:56:52;;;;;;;13.68;12.57;;;;;;;-0.10;61.92;95272.34;5095080;28;20204;-63
2022/03/02 01:59:19;;;;;;;13.18;12.10;;;;;;;-0.15;62.19;95271.56;5094995;28;20191;-63
2022/03/02 02:01:46;;;;;;;13.40;12.20;;;;;;;-0.17;61.76;95269.16;5094924;28;20192;-63
2022/03/02 02:04:13;;;;;;;13.27;11.98;;;;;;;-0.25;62.15;95258.91;5094209;28;20196;-64
2022/03/02 02:06:39;;;;;;;12.63;11.52;;;;;;;-0.37;62.63;95259.22;5094260;28;20193;-64
2022/03/02 02:09:08;;;;;;;12.70;11.70;;;;;;;-0.41;62.39;95250.03;5098134;28;20200;-64
2022/03/02 02:11:35;;;;;;;12.13;11.13;;;;;;;-0.39;62.84;95249.75;5097762;28;20206;-64
2022/03/02 02:14:03;;;;;;;11.63;10.63;;;;;;;-0.39;62.38;95252.47;5098307;28;20534;-64
2022/03/02 02:16:30;;;;;;;12.32;11.32;;;;;;;-0.38;62.05;95245.94;5097835;28;20278;-64
2022/03/02 02:18:57;;;;;;;12.50;11.50;;;;;;;-0.40;62.05;95245.41;5098378;28;20192;-64
2022/03/02 02:21:26;;;;;;;11.48;10.57;;;;;;;-0.42;62.08;95242.19;5097562;28;20204;-64
2022/03/02 02:23:52;;;;;;;11.30;10.32;;;;;;;-0.45;61.84;95248.16;5098204;28;20191;-64
2022/03/02 02:26:21;;;;;;;11.25;10.35;;;;;;;-0.51;62.46;95248.19;5098649;28;20211;-64
2022/03/02 02:28:49;;;;;;;11.60;10.70;;;;;;;-0.49;62.75;95253.31;5097579;28;20192;-64
2022/03/02 02:31:16;;;;;;;15.70;14.30;;;;;;;-0.48;62.47;95246.81;5097164;28;20196;-64
2022/03/02 02:33:43;;;;;;;17.40;15.90;;;;;;;-0.49;62.31;95245.19;5098042;28;20218;-64
2022/03/02 02:36:12;;;;;;;25.23;23.00;;;;;;;-0.53;61.79;95250.38;5098291;28;20195;-64
2022/03/02 02:38:40;;;;;;;32.58;29.20;;;;;;;-0.54;62.08;95242.53;5097438;28;20207;-64
2022/03/02 02:41:07;;;;;;;33.60;30.23;;;;;;;-0.60;62.62;95247.16;5096963;28;20188;-64
2022/03/02 02:43:34;;;;;;;26.73;23.95;;;;;;;-0.62;62.56;95243.09;5097797;28;20196;-64
2022/03/02 02:46:01;;;;;;;19.17;17.27;;;;;;;-0.64;62.34;95243.38;5098044;28;20597;-64
2022/03/02 02:48:28;;;;;;;13.30;12.10;;;;;;;-0.67;62.48;95249.34;5097318;28;20535;-64
2022/03/02 02:50:55;;;;;;;9.85;9.05;;;;;;;-0.70;61.56;95251.78;5097709;28;20523;-64
2022/03/02 02:53:22;;;;;;;6.57;6.18;;;;;;;-0.51;58.89;95242.78;5096909;28;20208;-64
2022/03/02 02:55:50;;;;;;;5.68;5.35;;;;;;;-0.33;58.14;95249.47;5097147;28;20204;-64
2022/03/02 02:58:17;;;;;;;5.93;5.53;;;;;;;-0.19;56.75;95243.41;5097931;28;20184;-64
2022/03/02 03:00:49;;;;;;;5.90;5.40;;;;;;;-0.14;57.10;95244.19;5096682;28;20604;-64
2022/03/02 03:03:16;;;;;;;5.93;5.53;;;;;;;-0.08;56.61;95244.94;5096874;28;20192;-64
2022/03/02 03:05:44;;;;;;;6.15;5.72;;;;;;;-0.03;56.53;95247.66;5097644;28;20180;-64
2022/03/02 03:08:12;;;;;;;6.50;6.10;;;;;;;0.04;56.10;95240.00;5097121;28;20204;-64
2022/03/02 03:10:40;;;;;;;6.80;6.30;;;;;;;0.07;55.59;95236.69;5097736;28;20187;-64
2022/03/02 03:13:09;;;;;;;6.45;5.95;;;;;;;0.08;56.15;95241.06;5097546;28;20220;-64
2022/03/02 03:15:36;;;;;;;6.53;6.05;;;;;;;0.11;55.96;95240.50;5097500;28;20211;-64
2022/03/02 03:18:03;;;;;;;6.78;6.28;;;;;;;0.15;56.68;95238.84;5096651;28;20205;-64
2022/03/02 03:20:31;;;;;;;6.47;5.97;;;;;;;0.21;56.44;95239.59;5097624;28;20219;-64
2022/03/02 03:22:58;;;;;;;7.40;6.80;;;;;;;0.25;56.75;95235.22;5097531;28;20530;-64
2022/03/02 03:25:26;;;;;;;6.90;6.40;;;;;;;0.20;56.58;95244.22;5096944;28;20192;-64
2022/03/02 03:27:53;;;;;;;7.47;6.97;;;;;;;0.19;57.16;95241.78;5096429;28;20196;-64
2022/03/02 03:30:23;;;;;;;7.50;7.00;;;;;;;0.20;57.62;95241.50;5096173;28;20239;-64
2022/03/02 03:32:50;;;;;;;7.18;6.65;;;;;;;0.21;57.61;95237.69;5097179;28;20180;-64
2022/03/02 03:35:19;;;;;;;7.47;6.78;;;;;;;0.24;57.65;95236.31;5097139;28;20181;-64
2022/03/02 03:37:46;;;;;;;7.72;7.13;;;;;;;0.31;57.94;95227.84;5096825;28;20191;-64
2022/03/02 03:40:15;;;;;;;7.47;6.97;;;;;;;0.37;58.05;95235.69;5096785;28;20589;-64
2022/03/02 03:42:42;;;;;;;7.53;6.93;;;;;;;0.41;57.95;95234.00;5096248;28;20538;-63
2022/03/02 03:45:10;;;;;;;7.10;6.60;;;;;;;0.45;58.14;95234.25;5097005;28;20192;-63
2022/03/02 03:47:38;;;;;;;7.85;7.15;;;;;;;0.47;58.19;95235.59;5095897;28;20219;-64
2022/03/02 03:50:06;;;;;;;7.65;7.05;;;;;;;0.49;57.63;95235.28;5096543;28;20187;-64
2022/03/02 03:52:33;;;;;;;7.50;6.90;;;;;;;0.50;58.12;95233.38;5095660;28;20556;-64
2022/03/02 03:55:00;;;;;;;7.82;7.22;;;;;;;0.55;57.63;95236.06;5096700;28;20219;-64
2022/03/02 03:57:27;;;;;;;7.63;7.03;;;;;;;0.54;57.70;95227.09;5095710;28;20196;-64
2022/03/02 03:59:54;;;;;;;9.25;8.55;;;;;;;0.59;57.92;95228.97;5096215;28;20189;-64
2022/03/02 04:02:20;;;;;;;9.15;8.45;;;;;;;0.60;57.76;95231.38;5095910;28;20192;-64
2022/03/02 04:04:49;;;;;;;8.85;8.15;;;;;;;0.62;57.65;95226.50;5095735;28;20193;-65
2022/03/02 04:07:15;;;;;;;8.05;7.40;;;;;;;0.60;58.24;95225.97;5095710;28;20200;-63
2022/03/02 04:09:42;;;;;;;8.40;7.70;;;;;;;0.53;57.81;95222.78;5096446;28;20219;-63
2022/03/02 04:12:09;;;;;;;8.70;8.00;;;;;;;0.53;59.15;95232.81;5095548;28;20262;-63
2022/03/02 04:14:36;;;;;;;9.00;8.30;;;;;;;0.47;58.73;95224.75;5096427;28;20205;-63
2022/03/02 04:17:03;;;;;;;8.30;7.60;;;;;;;0.50;58.79;95226.06;5095449;28;20299;-64
2022/03/02 04:19:30;;;;;;;8.73;7.95;;;;;;;0.48;59.09;95226.34;5095360;28;20211;-63
2022/03/02 04:21:58;;;;;;;8.70;7.95;;;;;;;0.49;58.97;95221.72;5095518;28;20203;-65
2022/03/02 04:24:25;;;;;;;9.18;8.48;;;;;;;0.47;59.28;95218.47;5096170;28;20185;-65
2022/03/02 04:26:52;;;;;;;9.75;8.95;;;;;;;0.46;59.26;95209.53;5096186;28;20613;-66
2022/03/02 04:29:18;;;;;;;8.50;7.90;;;;;;;0.50;59.62;95219.81;5094388;28;20244;-65
2022/03/02 04:31:45;;;;;;;8.93;8.23;;;;;;;0.53;59.47;95211.09;5096001;28;20193;-64
2022/03/02 04:34:12;;;;;;;8.27;7.57;;;;;;;0.51;59.24;95218.72;5095114;28;20232;-64
2022/03/02 04:36:39;;;;;;;8.27;7.60;;;;;;;0.55;59.35;95215.16;5095434;28;20200;-65
2022/03/02 04:39:08;;;;;;;8.55;7.95;;;;;;;0.58;59.14;95221.91;5095703;28;20284;-65
2022/03/02 04:41:34;;;;;;;8.50;7.80;;;;;;;0.62;59.21;95220.25;5095854;28;20192;-64
2022/03/02 04:44:01;;;;;;;7.63;7.07;;;;;;;0.63;59.05;95219.16;5095550;28;20206;-63
2022/03/02 04:46:28;;;;;;;8.85;8.15;;;;;;;0.68;58.89;95219.09;5094959;28;20192;-64
2022/03/02 04:48:55;;;;;;;9.55;8.82;;;;;;;0.67;58.59;95210.16;5094943;28;20511;-65
2022/03/02 04:51:22;;;;;;;8.52;7.82;;;;;;;0.63;59.20;95214.53;5094830;28;20527;-64
2022/03/02 04:53:50;;;;;;;8.45;7.85;;;;;;;0.63;59.26;95211.81;5095675;28;20204;-63
2022/03/02 04:56:18;;;;;;;7.90;7.30;;;;;;;0.63;59.04;95213.72;5095404;28;20188;-63
2022/03/02 04:58:45;;;;;;;7.70;7.10;;;;;;;0.64;59.68;95212.63;5094734;28;20196;-63
2022/03/02 05:01:12;;;;;;;8.00;7.40;;;;;;;0.68;59.54;95211.75;5094804;28;20213;-63
2022/03/02 05:03:39;;;;;;;7.70;7.20;;;;;;;0.69;60.00;95207.13;5095560;28;20212;-63
2022/03/02 05:06:05;;;;;;;8.27;7.68;;;;;;;0.68;59.67;95206.31;5095584;28;20185;-63
2022/03/02 05:08:32;;;;;;;7.95;7.35;;;;;;;0.67;60.03;95212.06;5095580;28;20176;-63
2022/03/02 05:10:59;;;;;;;8.23;7.63;;;;;;;0.66;59.94;95208.53;5094583;28;20214;-63
2022/03/02 05:13:27;;;;;;;7.97;7.35;;;;;;;0.66;60.01;95205.03;5095249;28;20180;-63
2022/03/02 05:15:54;;;;;;;9.63;8.93;;;;;;;0.68;60.43;95210.94;5095134;28;20192;-63
2022/03/02 05:18:21;;;;;;;10.60;9.80;;;;;;;0.68;60.56;95210.94;5095331;28;20189;-63
2022/03/02 05:20:48;;;;;;;10.38;9.60;;;;;;;0.68;60.68;95209.03;5094612;28;20185;-63
2022/03/02 05:23:14;;;;;;;11.77;10.88;;;;;;;0.71;60.97;95210.38;5095330;28;20216;-63
2022/03/02 05:25:41;;;;;;;10.55;9.75;;;;;;;0.65;61.19;95204.22;5095258;28;20204;-63
2022/03/02 05:28:08;;;;;;;9.30;8.60;;;;;;;0.64;61.47;95202.56;5094963;28;20184;-63
2022/03/02 05:30:37;;;;;;;9.18;8.50;;;;;;;0.67;61.61;95206.63;5093979;28;20270;-63
2022/03/02 05:33:03;;;;;;;9.50;8.80;;;;;;;0.71;61.57;95204.94;5094511;28;20212;-63
2022/03/02 05:35:30;;;;;;;8.57;7.97;;;;;;;0.69;61.55;95205.25;5095118;28;20200;-63
2022/03/02 05:37:57;;;;;;;8.43;7.78;;;;;;;0.70;61.52;95212.28;5094918;28;20593;-63
2022/03/02 05:40:24;;;;;;;9.00;8.30;;;;;;;0.71;61.94;95210.38;5095420;28;20210;-63
2022/03/02 05:42:51;;;;;;;7.90;7.40;;;;;;;0.68;62.13;95211.75;5098490;28;20196;-63
2022/03/02 05:45:18;;;;;;;8.75;8.05;;;;;;;0.67;62.02;95212.06;5098399;28;20188;-63
2022/03/02 05:47:46;;;;;;;9.13;8.43;;;;;;;0.59;62.40;95210.78;5098785;28;20212;-63
2022/03/02 05:50:13;;;;;;;8.55;7.95;;;;;;;0.59;62.32;95204.53;5099160;28;20186;-63
2022/03/02 05:52:40;;;;;;;9.40;8.70;;;;;;;0.63;62.53;95214.53;5098026;28;20204;-63
2022/03/02 05:55:08;;;;;;;9.05;8.32;;;;;;;0.67;62.56;95210.16;5099037;28;20294;-63
2022/03/02 05:57:36;;;;;;;9.50;8.80;;;;;;;0.69;62.01;95210.69;5098055;28;20200;-63
2022/03/02 06:00:04;;;;;;;9.88;9.07;;;;;;;0.72;62.36;95206.56;5098796;28;20612;-63
2022/03/02 06:02:31;;;;;;;10.18;9.38;;;;;;;0.72;62.14;95209.28;5098696;28;20187;-63
2022/03/02 06:04:59;;;;;;;9.57;8.88;;;;;;;0.69;62.35;95207.97;5098685;28;20176;-63
2022/03/02 06:07:25;;;;;;;9.85;9.05;;;;;;;0.71;62.31;95210.38;5097911;28;20214;-63
2022/03/02 06:09:53;;;;;;;9.98;9.18;;;;;;;0.73;62.40;95216.34;5098788;28;20195;-63
2022/03/02 06:12:20;;;;;;;8.70;8.05;;;;;;;0.80;62.27;95221.41;5097966;28;20200;-63
2022/03/02 06:14:48;;;;;;;9.43;8.63;;;;;;;0.82;61.98;95211.91;5098402;28;20196;-63
2022/03/02 06:17:15;;;;;;;9.82;9.13;;;;;;;0.84;62.13;95211.63;5097431;28;20204;-63
2022/03/02 06:19:42;;;;;;;9.55;8.77;;;;;;;0.88;62.26;95221.63;5098584;28;20191;-63
2022/03/02 06:22:11;;;;;;;10.18;9.38;;;;;;;0.88;62.19;95216.19;5097412;28;20203;-63
2022/03/02 06:24:39;;;;;;;10.88;9.98;;;;;;;0.84;62.22;95217.88;5097840;28;20192;-63
2022/03/02 06:27:06;;;;;;;10.45;9.55;;;;;;;0.86;62.29;95212.13;5098644;28;20192;-63
2022/03/02 06:29:32;;;;;;;10.07;9.38;;;;;;;0.87;62.11;95211.84;5097968;28;20224;-63
2022/03/02 06:31:59;;;;;;;9.77;8.98;;;;;;;0.84;62.19;95211.63;5097903;28;20197;-63
2022/03/02 06:34:26;;;;;;;10.02;9.32;;;;;;;0.91;62.26;95203.94;5097988;28;20545;-63
2022/03/02 06:36:53;;;;;;;10.40;9.50;;;;;;;0.92;61.76;95203.66;5097464;28;20192;-63
2022/03/02 06:39:23;;;;;;;9.63;8.93;;;;;;;0.93;61.73;95207.97;5098199;28;20207;-63
2022/03/02 06:42:02;;;;;;;10.00;9.30;;;;;;;1.00;61.96;95198.69;5097967;28;20188;-63
2022/03/02 06:44:34;;;;;;;9.88;9.18;;;;;;;1.08;61.57;95195.31;5097550;28;20200;-63
2022/03/02 06:47:03;;;;;;;10.48;9.57;;;;;;;1.14;61.58;95194.16;5098289;28;20266;-63
2022/03/02 06:49:35;;;;;;;10.15;9.45;;;;;;;1.16;61.82;95198.22;5097979;28;20181;-63
2022/03/02 06:52:06;;;;;;;10.68;9.77;;;;;;;1.22;61.41;95190.00;5097133;28;20261;-63
2022/03/02 06:54:34;;;;;;;9.70;9.00;;;;;;;1.23;61.46;95194.31;5097912;28;20291;-63
2022/03/02 06:57:03;;;;;;;10.55;9.75;;;;;;;1.27;61.19;95204.34;5097814;28;20260;-63
2022/03/02 06:59:31;;;;;;;10.65;9.77;;;;;;;1.25;61.01;95197.56;5097819;28;20192;-63
2022/03/02 07:02:02;;;;;;;10.80;9.90;;;;;;;1.26;61.03;95191.81;5097261;28;20210;-63
2022/03/02 07:04:34;;;;;;;11.60;10.60;;;;;;;1.28;60.93;95197.78;5097182;28;20587;-64
2022/03/02 07:07:02;;;;;;;11.43;10.52;;;;;;;1.32;60.57;95187.16;5096879;28;20196;-64
2022/03/02 07:09:30;;;;;;;11.98;10.98;;;;;;;1.35;61.11;95187.38;5097682;28;20177;-64
2022/03/02 07:11:59;;;;;;;11.80;10.80;;;;;;;1.36;60.58;95182.75;5096847;28;20540;-64
2022/03/02 07:14:28;;;;;;;11.80;10.80;;;;;;;1.38;60.98;95183.25;5096573;28;20227;-64
2022/03/02 07:16:57;;;;;;;10.88;9.77;;;;;;;1.35;60.35;95189.28;5096755;28;20192;-63
2022/03/02 07:19:24;;;;;;;10.98;10.05;;;;;;;1.38;61.01;95175.09;5096704;28;20196;-63
2022/03/02 07:21:52;;;;;;;11.98;10.90;;;;;;;1.43;60.61;95177.75;5097248;28;20207;-63
2022/03/02 07:24:22;;;;;;;11.32;10.43;;;;;;;1.46;60.21;95177.19;5096516;28;20208;-63
2022/03/02 07:26:52;;;;;;;12.18;11.13;;;;;;;1.51;60.03;95179.00;5097470;28;20226;-63
2022/03/02 07:29:22;;;;;;;11.57;10.68;;;;;;;1.50;60.17;95171.97;5096025;28;20236;-63
2022/03/02 07:31:51;;;;;;;12.50;11.40;;;;;;;1.53;60.38;95172.19;5097240;28;20189;-63
2022/03/02 07:34:19;;;;;;;14.18;12.80;;;;;;;1.55;60.11;95175.41;5096699;28;20216;-63
2022/03/02 07:36:47;;;;;;;12.35;11.35;;;;;;;1.56;60.24;95173.50;5097182;28;20188;-63
2022/03/02 07:39:14;;;;;;;12.68;11.65;;;;;;;1.57;60.28;95170.50;5097189;28;20196;-63
2022/03/02 07:41:41;;;;;;;12.40;11.40;;;;;;;1.57;60.07;95166.97;5097153;28;20183;-63
2022/03/02 07:44:08;;;;;;;12.18;11.27;;;;;;;1.62;59.99;95166.91;5096983;28;20192;-63
2022/03/02 07:46:36;;;;;;;12.15;11.18;;;;;;;1.58;60.64;95165.88;5096974;28;20189;-63
2022/03/02 07:49:04;;;;;;;12.95;11.88;;;;;;;1.61;60.40;95166.09;5096177;28;20210;-63
2022/03/02 07:51:34;;;;;;;13.25;12.20;;;;;;;1.65;60.17;95158.16;5096764;28;20192;-63
2022/03/02 07:54:03;;;;;;;14.38;13.18;;;;;;;1.69;60.84;95156.47;5096820;28;20184;-63
2022/03/02 07:56:31;;;;;;;12.63;11.63;;;;;;;1.72;60.38;95160.50;5096766;28;20205;-63
2022/03/02 07:59:02;;;;;;;12.50;11.40;;;;;;;1.70;60.53;95166.22;5096760;28;20189;-63
2022/03/02 08:01:29;;;;;;;12.10;11.07;;;;;;;1.71;59.96;95161.59;5096636;28;20185;-63
2022/03/02 08:03:58;;;;;;;13.32;12.25;;;;;;;1.67;60.46;95161.38;5095455;28;20225;-63
2022/03/02 08:06:25;;;;;;;12.77;11.77;;;;;;;1.68;60.26;95149.41;5095919;28;20504;-63
2022/03/02 08:08:54;;;;;;;12.38;11.38;;;;;;;1.68;60.66;95154.84;5095850;28;20204;-63
2022/03/02 08:11:22;;;;;;;12.77;11.77;;;;;;;1.73;60.70;95154.75;5096447;28;20195;-63
2022/03/02 08:13:49;;;;;;;12.95;11.90;;;;;;;1.67;60.35;95145.06;5096033;28;20200;-63
2022/03/02 08:16:16;;;;;;;14.23;13.02;;;;;;;1.72;60.81;95141.47;5096378;28;20215;-63
2022/03/02 08:18:43;;;;;;;12.73;11.57;;;;;;;1.75;60.24;95146.31;5096367;28;20185;-63
2022/03/02 08:21:12;;;;;;;12.50;11.50;;;;;;;1.73;60.25;95151.25;5095405;28;20537;-63
2022/03/02 08:23:39;;;;;;;13.20;12.10;;;;;;;1.81;60.62;95154.09;5095420;28;20207;-63
2022/03/02 08:26:07;;;;;;;13.25;12.15;;;;;;;1.85;60.49;95149.69;5095411;28;20223;-63
2022/03/02 08:28:35;;;;;;;13.40;12.30;;;;;;;1.90;60.71;95155.06;5096155;28;20196;-63
2022/03/02 08:31:02;;;;;;;13.60;12.50;;;;;;;1.93;60.05;95150.94;5094868;28;20239;-63
2022/03/02 08:33:31;;;;;;;13.05;11.95;;;;;;;1.96;60.02;95147.63;5095140;28;20207;-63
2022/03/02 08:35:58;;;;;;;15.48;14.18;;;;;;;2.02;59.63;95143.72;5095148;28;20227;-63
2022/03/02 08:38:27;;;;;;;14.32;13.05;;;;;;;2.08;59.93;95139.00;5095478;28;20189;-64
2022/03/02 08:40:53;;;;;;;14.23;13.02;;;;;;;2.14;59.66;95135.06;5095212;28;20196;-63
2022/03/02 08:43:21;;;;;;;12.65;11.55;;;;;;;2.15;58.96;95136.72;5095250;28;20208;-65
2022/03/02 08:45:48;;;;;;;14.57;13.27;;;;;;;2.18;59.17;95122.50;5096162;28;20181;-63
2022/03/02 08:48:15;;;;;;;14.13;12.82;;;;;;;2.25;59.53;95113.94;5095070;28;20196;-64
2022/03/02 08:50:43;;;;;;;17.40;15.95;;;;;;;2.27;59.27;95126.16;5095514;28;20535;-63
2022/03/02 08:53:13;;;;;;;18.42;16.73;;;;;;;2.27;59.40;95122.63;5094885;28;20206;-63
2022/03/02 08:55:43;;;;;;;18.55;16.95;;;;;;;2.41;59.18;95118.00;5095649;28;20201;-64
2022/03/02 08:58:09;;;;;;;18.58;16.90;;;;;;;2.48;60.09;95115.72;5095033;28;20206;-63
2022/03/02 09:00:36;;;;;;;15.70;14.38;;;;;;;2.55;59.06;95118.84;5095201;28;20267;-63
2022/03/02 09:03:04;;;;;;;15.27;13.98;;;;;;;2.61;58.74;95120.38;5094833;28;20218;-63
2022/03/02 09:05:31;;;;;;;15.77;14.30;;;;;;;2.67;58.50;95109.38;5094360;28;20193;-63
2022/03/02 09:07:58;;;;;;;15.65;14.30;;;;;;;2.67;58.54;95103.94;5094343;28;20206;-63
2022/03/02 09:10:25;;;;;;;15.07;13.80;;;;;;;2.74;58.47;95105.13;5094820;28;20196;-63
2022/03/02 09:12:55;;;;;;;15.00;13.70;;;;;;;2.80;57.71;95108.56;5095531;28;20191;-63
2022/03/02 09:15:22;;;;;;;13.82;12.63;;;;;;;2.81;57.85;95102.81;5093642;28;20231;-63
2022/03/02 09:17:49;;;;;;;14.40;13.10;;;;;;;3.01;58.17;95103.50;5094614;28;20203;-63
2022/03/02 09:20:16;;;;;;;15.02;13.73;;;;;;;3.17;57.60;95106.72;5095241;28;20223;-63
2022/03/02 09:22:43;;;;;;;15.10;13.90;;;;;;;3.26;56.85;95100.25;5094584;28;20204;-63
2022/03/02 09:25:10;;;;;;;15.80;14.50;;;;;;;3.44;57.33;95103.94;5094245;28;20295;-63
2022/03/02 09:27:37;;;;;;;16.10;14.60;;;;;;;3.44;56.05;95095.75;5095480;28;20361;-63
2022/03/02 09:30:08;;;;;;;14.98;13.68;;;;;;;3.65;57.39;95087.94;5095247;28;20236;-63
2022/03/02 09:32:35;;;;;;;16.30;14.85;;;;;;;3.70;55.90;95090.53;5094369;28;20204;-63
2022/03/02 09:35:03;;;;;;;14.63;13.23;;;;;;;3.76;55.79;95075.66;5094348;28;20223;-63
2022/03/02 09:37:34;;;;;;;14.88;13.57;;;;;;;4.08;56.81;95085.53;5093979;28;20200;-63
2022/03/02 09:40:01;;;;;;;15.23;13.88;;;;;;;4.49;55.13;95080.94;5094470;28;20196;-63
2022/03/02 09:42:31;;;;;;;15.98;14.68;;;;;;;4.74;54.50;95079.44;5095209;28;20211;-63
2022/03/02 09:45:01;;;;;;;15.52;14.23;;;;;;;4.64;53.23;95075.03;5093901;28;20206;-63
2022/03/02 09:47:38;;;;;;;18.08;16.48;;;;;;;4.62;54.71;95080.03;5095114;28;20224;-63
2022/03/02 09:50:05;;;;;;;17.55;15.95;;;;;;;4.77;54.91;95065.94;5094756;28;20199;-63
2022/03/02 09:52:32;;;;;;;17.10;15.70;;;;;;;4.94;54.11;95072.56;5095106;28;20189;-63
2022/03/02 09:54:59;;;;;;;17.23;15.73;;;;;;;5.13;52.79;95064.94;5094930;28;20259;-63
2022/03/02 09:57:27;;;;;;;18.70;17.05;;;;;;;5.30;52.79;95070.44;5094084;28;20200;-63
2022/03/02 09:59:55;;;;;;;17.85;16.27;;;;;;;5.43;51.81;95065.13;5095280;28;20203;-63
2022/03/02 10:02:36;;;;;;;17.08;15.57;;;;;;;5.30;51.26;95064.13;5095083;28;20234;-63
2022/03/02 10:05:06;;;;;;;18.50;16.90;;;;;;;5.21;51.34;95061.41;5095269;28;20220;-63
2022/03/02 10:07:36;;;;;;;16.70;15.30;;;;;;;5.42;51.93;95058.88;5094547;28;20184;-63
2022/03/02 10:10:06;;;;;;;17.23;15.63;;;;;;;5.84;51.85;95055.66;5094291;28;20203;-63
2022/03/02 10:12:33;;;;;;;16.73;15.32;;;;;;;5.77;50.49;95056.97;5094231;28;20204;-63
2022/03/02 10:15:01;;;;;;;16.92;15.48;;;;;;;5.90;49.60;95046.94;5094472;28;20199;-63
2022/03/02 10:17:33;;;;;;;18.02;16.42;;;;;;;5.94;49.45;95038.94;5093910;28;20204;-63
2022/03/02 10:20:06;;;;;;;17.48;15.98;;;;;;;6.15;48.99;95037.13;5094080;28;20200;-63
2022/03/02 10:23:09;;;;;;;16.85;15.45;;;;;;;6.34;48.77;95036.75;5094132;28;20204;-62
2022/03/02 10:26:04;;;;;;;16.85;15.32;;;;;;;6.46;47.22;95033.31;5089662;28;20635;-62
2022/03/02 10:28:32;;;;;;;17.58;16.08;;;;;;;6.44;48.95;95033.66;5093713;28;20542;-62
2022/03/02 10:31:29;;;;;;;15.90;14.48;;;;;;;6.37;47.17;95027.09;5097964;28;20255;-63
2022/03/02 10:34:04;;;;;;;18.25;16.55;;;;;;;6.40;48.70;95020.94;5098388;28;20181;-63
2022/03/02 10:36:31;;;;;;;16.98;15.48;;;;;;;6.27;48.21;95017.28;5098655;28;20216;-63
2022/03/02 10:39:06;;;;;;;15.48;14.02;;;;;;;6.33;46.49;94999.53;5097448;28;20193;-64
2022/03/02 10:41:39;;;;;;;16.30;14.90;;;;;;;6.39;46.25;95009.19;5097193;28;20192;-63
2022/03/02 10:44:09;;;;;;;15.95;14.55;;;;;;;6.53;45.58;95008.16;5098489;28;20192;-63
2022/03/02 10:46:41;;;;;;;15.55;14.20;;;;;;;6.49;45.80;94994.31;5097769;28;20273;-64
2022/03/02 10:49:14;;;;;;;15.82;14.32;;;;;;;6.54;46.11;94999.63;5097247;28;20208;-63
2022/03/02 10:51:43;;;;;;;14.90;13.57;;;;;;;6.68;45.09;94988.41;5097756;28;20277;-63
2022/03/02 10:54:10;;;;;;;15.35;14.05;;;;;;;6.55;46.38;94984.00;5097698;28;20628;-63
2022/03/02 10:56:39;;;;;;;15.15;13.85;;;;;;;6.55;48.23;94982.03;5098173;28;20211;-63
2022/03/02 10:59:08;;;;;;;15.52;14.05;;;;;;;6.97;47.66;94976.66;5097274;28;20199;-63
2022/03/02 11:01:35;;;;;;;16.42;14.73;;;;;;;7.04;44.65;94967.91;5096560;28;20196;-63
2022/03/02 11:04:22;;;;;;;15.55;14.13;;;;;;;7.10;44.80;94958.34;5096902;28;20189;-63
2022/03/02 11:06:49;;;;;;;15.02;13.70;;;;;;;7.20;44.30;94961.50;5097427;28;20543;-63
2022/03/02 11:09:17;;;;;;;14.45;13.15;;;;;;;7.07;43.79;94961.75;5096354;28;20193;-63
2022/03/02 11:11:44;;;;;;;16.25;14.65;;;;;;;6.70;46.40;94956.81;5096839;28;20197;-63
2022/03/02 11:14:11;;;;;;;14.77;13.57;;;;;;;6.91;45.12;94953.31;5096899;28;20204;-63
2022/03/02 11:16:39;;;;;;;14.52;13.18;;;;;;;7.23;45.16;94949.06;5097274;28;20731;-63
2022/03/02 11:19:11;;;;;;;14.52;13.23;;;;;;;7.44;43.97;94947.13;5097381;28;20238;-63
2022/03/02 11:21:40;;;;;;;14.13;12.82;;;;;;;7.55;44.27;94931.03;5097527;28;20191;-63
2022/03/02 11:24:09;;;;;;;13.60;12.30;;;;;;;7.87;42.78;94926.69;5097468;28;20191;-63
2022/03/02 11:26:38;;;;;;;14.02;12.73;;;;;;;8.07;41.14;94926.97;5097716;28;20192;-63
2022/03/02 11:29:10;;;;;;;14.15;12.93;;;;;;;8.06;42.82;94915.19;5096032;28;20196;-63
2022/03/02 11:31:41;;;;;;;13.77;12.57;;;;;;;8.02;41.46;94916.97;5096331;28;20192;-63
2022/03/02 11:34:12;;;;;;;14.35;12.98;;;;;;;7.60;41.48;94916.31;5097418;28;20195;-63